Time;durP1;ratioP1;P1;durP2;ratioP2;P2;SDS_P1;SDS_P2;PMS_P1;PMS_P2;Temp;Humidity;BMP_temperature;BMP_pressure;BME280_temperature;BME280_humidity;BME280_pressure;Samples;Min_cycle;Max_cycle;Signal;HPM_P1;HPM_P2
2023/04/17 00:00:10;;;;;;;23.75;14.88;;;11.90;99.90;;;;;;5052498;28;20055;-75
2023/04/17 00:03:15;;;;;;;17.55;12.75;;;12.10;99.90;;;;;;5052926;28;20052;-75
2023/04/17 00:06:19;;;;;;;15.85;12.25;;;11.90;99.90;;;;;;5052869;28;20036;-76
2023/04/17 00:09:23;;;;;;;18.85;12.80;;;;;;;;;;5052012;28;20044;-75
2023/04/17 00:12:27;;;;;;;14.68;11.45;;;12.60;99.90;;;;;;5052063;28;20048;-75
2023/04/17 00:15:31;;;;;;;13.32;8.75;;;12.00;99.90;;;;;;5052893;28;20052;-76
2023/04/17 00:18:35;;;;;;;11.35;6.85;;;12.20;99.90;;;;;;5052603;28;20044;-75
2023/04/17 00:21:39;;;;;;;7.45;5.53;;;12.00;99.90;;;;;;5051506;28;20059;-76
2023/04/17 00:24:43;;;;;;;5.95;4.80;;;12.00;99.90;;;;;;5051552;28;20060;-76
2023/04/17 00:27:47;;;;;;;5.22;4.10;;;12.00;99.90;;;;;;5052595;28;20035;-76
2023/04/17 00:30:51;;;;;;;6.55;3.75;;;12.10;99.90;;;;;;5051588;28;20056;-77
2023/04/17 00:33:57;;;;;;;4.57;3.13;;;12.00;99.90;;;;;;5052735;28;20040;-76
2023/04/17 00:37:01;;;;;;;4.03;2.55;;;11.90;99.90;;;;;;5052243;28;20044;-76
2023/04/17 00:40:05;;;;;;;6.32;3.40;;;12.00;99.90;;;;;;5051701;28;20036;-76
2023/04/17 00:43:10;;;;;;;5.43;3.00;;;12.10;99.90;;;;;;5051324;28;20059;-77
2023/04/17 00:46:15;;;;;;;3.15;1.90;;;12.10;99.90;;;;;;5051920;28;20511;-77
2023/04/17 00:49:19;;;;;;;2.85;1.60;;;12.00;99.90;;;;;;5051684;28;20052;-76
2023/04/17 00:52:28;;;;;;;2.22;1.30;;;12.10;99.90;;;;;;5052092;28;20040;-77
2023/04/17 00:55:34;;;;;;;4.20;1.35;;;11.40;99.90;;;;;;5040051;28;20234;-77
2023/04/17 00:58:39;;;;;;;1.02;0.60;;;12.10;99.90;;;;;;5052284;28;20044;-77
2023/04/17 01:01:44;;;;;;;1.42;0.55;;;12.20;99.90;;;;;;5056999;28;20393;-78
2023/04/17 01:04:48;;;;;;;2.70;1.00;;;12.00;99.90;;;;;;5041716;28;20047;-77
2023/04/17 01:07:56;;;;;;;2.35;1.00;;;12.00;99.90;;;;;;5051127;28;20047;-76
2023/04/17 01:11:00;;;;;;;2.28;0.88;;;12.00;99.90;;;;;;5039696;28;20044;-74
2023/04/17 01:14:04;;;;;;;3.92;1.10;;;12.10;99.90;;;;;;5051017;28;20504;-76
2023/04/17 01:17:09;;;;;;;1.90;0.75;;;12.10;99.90;;;;;;5051156;28;20047;-77
2023/04/17 01:20:13;;;;;;;1.98;1.00;;;12.10;99.90;;;;;;5050687;28;20063;-77
2023/04/17 01:23:17;;;;;;;0.90;0.60;;;12.10;99.90;;;;;;5050743;28;20051;-77
2023/04/17 01:26:23;;;;;;;3.90;0.80;;;12.00;99.90;;;;;;5039272;28;20052;-77
2023/04/17 01:29:27;;;;;;;1.60;0.68;;;12.00;99.90;;;;;;5050674;28;20044;-77
2023/04/17 01:32:34;;;;;;;0.70;0.60;;;14.50;99.90;;;;;;5050853;28;20053;-77
2023/04/17 01:35:38;;;;;;;1.95;0.77;;;11.70;99.90;;;;;;5050745;28;20048;-76
2023/04/17 01:38:42;;;;;;;1.00;0.70;;;12.20;99.90;;;;;;5027904;28;20044;-77
2023/04/17 01:41:47;;;;;;;0.63;0.50;;;12.30;99.90;;;;;;5051603;28;20044;-77
2023/04/17 01:44:51;;;;;;;0.45;0.45;;;;;;;;;;5050638;28;20507;-77
2023/04/17 01:47:55;;;;;;;1.75;0.60;;;13.70;99.90;;;;;;5051139;28;20041;-78
2023/04/17 01:50:59;;;;;;;0.60;0.60;;;;;;;;;;5039171;28;20044;-77
2023/04/17 01:54:03;;;;;;;0.65;0.50;;;;;;;;;;5050571;28;20033;-77
2023/04/17 01:57:07;;;;;;;0.80;0.50;;;11.10;99.90;;;;;;5038997;28;20037;-77
2023/04/17 02:00:12;;;;;;;1.30;0.50;;;12.10;99.90;;;;;;5054613;28;20040;-77
2023/04/17 02:03:21;;;;;;;0.85;0.52;;;12.10;99.90;;;;;;5055525;28;20068;-77
2023/04/17 02:06:26;;;;;;;0.93;0.55;;;12.20;99.90;;;;;;5055952;28;20048;-76
2023/04/17 02:09:31;;;;;;;1.52;0.80;;;;;;;;;;5055447;28;20052;-76
2023/04/17 02:12:35;;;;;;;2.55;0.82;;;12.10;99.90;;;;;;5054588;28;20033;-77
2023/04/17 02:15:39;;;;;;;1.25;0.60;;;12.10;99.90;;;;;;5055361;28;20044;-77
2023/04/17 02:18:43;;;;;;;2.33;0.70;;;;;;;;;;5054191;28;20040;-76
2023/04/17 02:21:47;;;;;;;0.70;0.60;;;12.10;99.90;;;;;;5055160;28;20045;-77
2023/04/17 02:24:51;;;;;;;0.98;0.70;;;12.10;99.90;;;;;;5055240;28;20051;-75
2023/04/17 02:27:56;;;;;;;2.35;0.80;;;12.20;99.90;;;;;;5054128;28;20048;-76
2023/04/17 02:31:00;;;;;;;0.65;0.57;;;12.10;99.90;;;;;;5055226;28;20523;-75
2023/04/17 02:34:04;;;;;;;3.60;0.70;;;12.40;99.90;;;;;;5055306;28;20131;-76
2023/04/17 02:37:09;;;;;;;1.38;0.80;;;12.10;99.90;;;;;;5055003;28;20504;-76
2023/04/17 02:40:14;;;;;;;2.75;0.73;;;12.10;99.90;;;;;;5054064;28;20503;-76
2023/04/17 02:43:18;;;;;;;0.98;0.60;;;12.10;99.90;;;;;;5053751;28;20642;-75
2023/04/17 02:46:22;;;;;;;2.08;0.80;;;12.10;99.90;;;;;;5054271;28;20048;-76
2023/04/17 02:49:26;;;;;;;1.38;0.80;;;;;;;;;;5053642;28;20071;-76
2023/04/17 02:52:33;;;;;;;2.17;0.63;;;12.10;99.90;;;;;;5053853;28;20374;-76
2023/04/17 02:55:37;;;;;;;1.17;0.70;;;;;;;;;;5053561;28;20047;-76
2023/04/17 02:58:43;;;;;;;1.52;0.90;;;12.10;99.90;;;;;;5053413;28;20041;-76
2023/04/17 03:01:47;;;;;;;2.70;0.90;;;11.90;99.90;;;;;;5053365;28;20508;-75
2023/04/17 03:04:54;;;;;;;1.20;0.73;;;12.10;99.90;;;;;;5053397;28;20523;-75
2023/04/17 03:07:58;;;;;;;1.83;0.95;;;12.00;99.90;;;;;;5054192;28;20052;-75
2023/04/17 03:11:05;;;;;;;1.98;1.20;;;12.00;99.90;;;;;;5041154;28;20044;-75
2023/04/17 03:14:09;;;;;;;0.98;0.77;;;12.00;99.90;;;;;;5053043;28;20519;-76
2023/04/17 03:17:14;;;;;;;1.58;0.73;;;12.00;99.90;;;;;;5053399;28;20496;-75
2023/04/17 03:20:18;;;;;;;0.98;0.80;;;12.10;99.90;;;;;;5053143;28;20039;-76
2023/04/17 03:23:22;;;;;;;1.63;0.77;;;9.10;99.90;;;;;;5052674;28;20071;-76
2023/04/17 03:26:26;;;;;;;0.88;0.50;;;11.80;99.90;;;;;;5053541;28;20044;-76
2023/04/17 03:29:30;;;;;;;1.08;0.98;;;12.20;99.90;;;;;;5052985;28;20048;-76
2023/04/17 03:32:36;;;;;;;1.50;1.02;;;;;;;;;;5054247;28;20040;-76
2023/04/17 03:35:41;;;;;;;1.33;0.70;;;12.20;99.90;;;;;;5052708;28;20033;-76
2023/04/17 03:38:46;;;;;;;1.30;0.80;;;12.10;99.90;;;;;;5053482;28;20044;-76
2023/04/17 03:41:52;;;;;;;1.25;0.70;;;12.10;99.90;;;;;;5041081;28;20048;-76
2023/04/17 03:44:56;;;;;;;1.00;0.85;;;12.20;99.90;;;;;;5052728;28;20503;-77
2023/04/17 03:48:01;;;;;;;1.70;0.80;;;12.10;99.90;;;;;;5052879;28;20065;-77
2023/04/17 03:51:06;;;;;;;1.48;0.70;;;12.10;99.90;;;;;;5052605;28;20068;-76
2023/04/17 03:54:12;;;;;;;1.63;0.60;;;12.00;99.90;;;;;;5052691;28;20503;-76
2023/04/17 03:57:19;;;;;;;1.00;0.80;;;12.30;99.90;;;;;;5052422;28;20048;-76
2023/04/17 04:00:24;;;;;;;1.55;0.90;;;12.10;99.90;;;;;;5052434;28;20061;-76
2023/04/17 04:03:34;;;;;;;2.45;0.90;;;;;;;;;;5052550;28;20051;-76
2023/04/17 04:06:41;;;;;;;1.10;0.80;;;12.20;99.90;;;;;;5051973;28;20374;-76
2023/04/17 04:09:48;;;;;;;2.60;1.30;;;12.10;99.90;;;;;;5052295;28;20508;-77
2023/04/17 04:12:54;;;;;;;1.90;1.05;;;;;;;;;;5052516;28;20040;-78
2023/04/17 04:15:58;;;;;;;1.20;0.85;;;;;;;;;;5052156;28;20041;-76
2023/04/17 04:19:05;;;;;;;1.73;1.40;;;12.10;99.90;;;;;;5053415;28;20049;-76
2023/04/17 04:22:09;;;;;;;3.00;1.40;;;12.10;99.90;;;;;;5051383;28;20404;-77
2023/04/17 04:25:20;;;;;;;2.17;1.60;;;;;;;;;;5051960;28;20059;-76
2023/04/17 04:28:32;;;;;;;2.25;1.33;;;12.10;99.90;;;;;;5052561;28;20041;-76
2023/04/17 04:31:36;;;;;;;1.63;1.13;;;12.00;99.90;;;;;;5051916;28;20569;-76
2023/04/17 04:34:43;;;;;;;1.55;1.10;;;12.20;99.90;;;;;;5051903;28;20044;-75
2023/04/17 04:37:47;;;;;;;1.45;1.00;;;12.10;99.90;;;;;;5051922;28;20079;-76
2023/04/17 04:40:52;;;;;;;1.20;1.10;;;12.20;99.90;;;;;;5051812;28;20044;-76
2023/04/17 04:43:56;;;;;;;1.15;0.90;;;12.20;99.90;;;;;;5051394;28;20064;-78
2023/04/17 04:47:00;;;;;;;11.75;1.50;;;12.10;99.90;;;;;;5052482;28;20040;-75
2023/04/17 04:50:05;;;;;;;1.40;1.30;;;12.20;99.90;;;;;;5051311;28;20051;-76
2023/04/17 04:53:10;;;;;;;1.10;0.80;;;12.10;99.90;;;;;;5052024;28;20040;-77
2023/04/17 04:56:30;;;;;;;1.77;1.20;;;12.30;99.90;;;;;;5051460;28;20052;-77
2023/04/17 04:59:35;;;;;;;0.88;0.88;;;;;;;;;;5051892;28;20048;-78
2023/04/17 05:03:05;;;;;;;2.10;1.08;;;;;;;;;;5052626;28;20044;-78
2023/04/17 05:06:10;;;;;;;1.60;0.98;;;12.70;99.90;;;;;;5051242;28;20037;-77
2023/04/17 05:09:25;;;;;;;2.03;1.80;;;12.40;99.90;;;;;;5052446;28;20052;-77
2023/04/17 05:12:33;;;;;;;1.20;1.10;;;12.50;99.90;;;;;;5051586;28;20116;-76
2023/04/17 05:15:40;;;;;;;4.05;1.42;;;12.60;99.90;;;;;;5051386;28;20040;-78
2023/04/17 05:18:46;;;;;;;4.00;1.55;;;12.60;99.90;;;;;;5040357;28;20048;-75
2023/04/17 05:21:52;;;;;;;2.08;1.33;;;13.00;99.90;;;;;;5050553;28;20048;-61
2023/04/17 05:24:58;;;;;;;2.28;1.20;;;12.60;99.90;;;;;;5049915;28;20056;-64
2023/04/17 05:28:04;;;;;;;2.00;1.25;;;12.60;99.90;;;;;;5050239;28;20040;-63
2023/04/17 05:31:09;;;;;;;3.25;1.70;;;12.70;99.90;;;;;;5049966;28;20044;-63
2023/04/17 05:34:17;;;;;;;3.08;2.22;;;12.70;99.90;;;;;;5049547;28;20043;-64
2023/04/17 05:37:22;;;;;;;3.47;2.00;;;13.10;99.90;;;;;;5038522;28;20500;-64
2023/04/17 05:40:26;;;;;;;4.15;2.42;;;14.30;99.90;;;;;;5050090;28;20681;-64
2023/04/17 05:43:30;;;;;;;5.00;2.95;;;13.40;99.90;;;;;;5050514;28;20051;-64
2023/04/17 05:46:34;;;;;;;5.57;2.75;;;;;;;;;;5050121;28;20500;-64
2023/04/17 05:49:39;;;;;;;7.03;2.80;;;;;;;;;;5050805;28;20037;-64
2023/04/17 05:52:43;;;;;;;4.65;2.60;;;;;;;;;;5050130;28;20037;-63
2023/04/17 05:55:49;;;;;;;7.80;5.00;;;;;;;;;;5049784;28;20040;-65
2023/04/17 05:58:54;;;;;;;4.10;3.15;;;;;;;;;;5049861;28;20403;-63
2023/04/17 06:01:58;;;;;;;6.03;3.03;;;13.00;99.90;;;;;;5038519;28;20037;-65
2023/04/17 06:05:05;;;;;;;6.30;3.90;;;13.20;99.90;;;;;;5050648;28;20048;-64
2023/04/17 06:08:09;;;;;;;4.88;3.13;;;13.40;99.90;;;;;;5049906;28;20040;-64
2023/04/17 06:11:14;;;;;;;4.18;2.47;;;13.50;99.90;;;;;;5050453;28;20052;-61
2023/04/17 06:14:20;;;;;;;7.15;3.33;;;13.40;99.90;;;;;;5038229;28;20496;-62
2023/04/17 06:17:24;;;;;;;5.30;2.65;;;13.10;99.90;;;;;;5050054;28;20078;-63
2023/04/17 06:20:28;;;;;;;4.28;2.70;;;13.30;99.90;;;;;;5050637;28;20040;-62
2023/04/17 06:23:32;;;;;;;5.78;2.50;;;;;;;;;;5050120;28;20056;-62
2023/04/17 06:26:36;;;;;;;3.60;2.22;;;14.00;99.90;;;;;;5010604;28;20038;-62
2023/04/17 06:29:42;;;;;;;4.57;2.50;;;;;;;;;;4998608;28;20041;-62
2023/04/17 06:32:47;;;;;;;15.48;3.25;;;;;;;;;;5009967;28;20046;-62
2023/04/17 06:35:51;;;;;;;7.05;2.30;;;;;;;;;;5010423;28;20045;-63
2023/04/17 06:39:11;;;;;;;13.17;2.77;;;11.20;99.90;;;;;;5009708;28;20513;-63
2023/04/17 06:42:16;;;;;;;14.68;3.38;;;;;;;;;;4998368;28;20041;-63
2023/04/17 06:45:20;;;;;;;5.95;3.55;;;;;;;;;;5002003;28;20524;-67
2023/04/17 06:48:24;;;;;;;3.72;2.83;;;12.10;99.90;;;;;;5014406;28;20038;-67
2023/04/17 06:51:28;;;;;;;3.38;2.33;;;;;;;;;;5002176;28;20045;-66
2023/04/17 06:54:32;;;;;;;3.97;2.47;;;11.40;99.90;;;;;;5014034;28;20482;-67
2023/04/17 06:57:37;;;;;;;5.68;3.40;;;9.60;99.90;;;;;;5014316;28;20049;-66
2023/04/17 07:00:42;;;;;;;8.10;2.60;;;10.20;99.90;;;;;;5013887;28;20038;-65
2023/04/17 07:03:46;;;;;;;10.38;4.20;;;10.50;99.90;;;;;;5014023;28;20429;-65
2023/04/17 07:06:51;;;;;;;6.82;4.93;;;10.00;99.90;;;;;;5013775;28;20037;-65
2023/04/17 07:09:55;;;;;;;9.63;3.67;;;9.80;99.90;;;;;;5014192;28;20049;-66
2023/04/17 07:12:59;;;;;;;12.88;5.57;;;11.00;99.90;;;;;;5013443;28;20038;-65
2023/04/17 07:16:04;;;;;;;6.93;3.83;;;10.50;99.90;;;;;;5013643;28;20045;-67
2023/04/17 07:19:09;;;;;;;4.93;2.33;;;10.80;99.90;;;;;;5013897;28;20045;-66
2023/04/17 07:22:13;;;;;;;3.08;1.77;;;10.80;99.90;;;;;;5013713;28;20052;-68
2023/04/17 07:25:18;;;;;;;3.05;2.13;;;10.90;99.90;;;;;;5031842;28;20055;-67
2023/04/17 07:28:23;;;;;;;5.32;2.60;;;11.90;99.90;;;;;;5053345;28;20044;-67
2023/04/17 07:31:28;;;;;;;2.30;2.05;;;11.00;99.90;;;;;;5053377;28;20052;-66
2023/04/17 07:34:35;;;;;;;7.18;3.45;;;;;;;;;;5053347;28;20075;-67
2023/04/17 07:37:40;;;;;;;6.07;2.65;;;10.50;99.90;;;;;;5052997;28;20045;-68
2023/04/17 07:40:44;;;;;;;5.25;3.20;;;;;;;;;;5053232;28;20500;-66
2023/04/17 07:43:48;;;;;;;9.32;3.15;;;7.80;99.90;;;;;;5052754;28;20382;-67
2023/04/17 07:46:52;;;;;;;5.60;2.50;;;11.20;99.90;;;;;;5052435;28;20048;-66
2023/04/17 07:49:57;;;;;;;4.03;2.65;;;11.10;99.90;;;;;;5053068;28;20044;-66
2023/04/17 07:53:02;;;;;;;4.55;2.53;;;;;;;;;;5052244;28;20036;-68
2023/04/17 07:56:06;;;;;;;9.38;2.60;;;11.40;99.90;;;;;;5052210;28;20045;-65
2023/04/17 07:59:10;;;;;;;6.97;2.00;;;;;;;;;;5052452;28;20036;-68
2023/04/17 08:02:15;;;;;;;5.10;1.30;;;11.10;99.90;;;;;;5052044;28;20037;-65
2023/04/17 08:05:19;;;;;;;7.15;2.05;;;;;;;;;;5052489;28;20544;-65
2023/04/17 08:08:23;;;;;;;5.53;1.90;;;11.30;99.90;;;;;;5052409;28;20374;-63
2023/04/17 08:11:28;;;;;;;4.25;2.20;;;11.50;99.90;;;;;;5052302;28;20048;-65
2023/04/17 08:14:32;;;;;;;1.58;1.08;;;;;;;;;;5052092;28;20056;-66
2023/04/17 08:17:37;;;;;;;3.63;2.30;;;;;;;;;;5052464;28;20041;-66
2023/04/17 08:20:41;;;;;;;5.70;2.45;;;11.60;99.90;;;;;;5052353;28;20029;-66
2023/04/17 08:23:46;;;;;;;3.75;2.95;;;;;;;;;;5051922;28;20073;-66
2023/04/17 08:26:50;;;;;;;4.85;2.47;;;11.60;99.90;;;;;;5052381;28;20144;-65
2023/04/17 08:29:55;;;;;;;4.50;1.77;;;;;;;;;;5052209;28;20040;-68
2023/04/17 08:32:59;;;;;;;4.55;1.80;;;11.50;99.90;;;;;;5052443;28;20041;-65
2023/04/17 08:36:03;;;;;;;2.95;1.00;;;12.40;99.90;;;;;;5052709;28;20400;-66
2023/04/17 08:39:09;;;;;;;1.55;1.13;;;11.90;99.90;;;;;;5051978;28;20527;-66
2023/04/17 08:42:14;;;;;;;3.42;1.70;;;;;;;;;;5051942;28;20060;-64
2023/04/17 08:45:22;;;;;;;2.10;0.88;;;12.00;99.90;;;;;;5052129;28;20049;-65
2023/04/17 08:48:26;;;;;;;2.10;1.20;;;12.00;99.90;;;;;;5052056;28;20055;-67
2023/04/17 08:51:31;;;;;;;1.00;0.88;;;12.40;99.90;;;;;;5052393;28;20067;-66
2023/04/17 08:54:36;;;;;;;1.58;1.00;;;12.40;99.90;;;;;;5052085;28;20044;-67
2023/04/17 08:57:59;;;;;;;2.30;0.80;;;12.90;99.90;;;;;;5052097;28;20048;-65
2023/04/17 09:01:12;;;;;;;4.18;1.88;;;12.70;99.90;;;;;;5052245;28;20048;-68
2023/04/17 09:04:40;;;;;;;1.83;0.90;;;13.10;99.90;;;;;;5051228;28;20408;-68
2023/04/17 09:07:45;;;;;;;1.58;0.90;;;13.60;99.90;;;;;;5051152;28;20044;-69
2023/04/17 09:10:51;;;;;;;2.03;0.77;;;13.10;99.90;;;;;;5051278;28;20048;-66
2023/04/17 09:13:55;;;;;;;0.95;0.60;;;13.30;99.90;;;;;;5051136;28;20065;-65
2023/04/17 09:16:59;;;;;;;2.53;0.85;;;10.90;99.90;;;;;;5050721;28;20404;-66
2023/04/17 09:20:08;;;;;;;3.35;0.90;;;13.50;99.90;;;;;;5051345;28;20044;-65
2023/04/17 09:23:13;;;;;;;1.50;0.70;;;;;;;;;;5051204;28;20052;-66
2023/04/17 09:26:25;;;;;;;2.25;0.90;;;13.70;99.90;;;;;;5050865;28;20049;-64
2023/04/17 09:29:29;;;;;;;0.85;0.70;;;13.60;99.60;;;;;;5051320;28;20040;-65
2023/04/17 09:32:33;;;;;;;1.48;0.70;;;13.50;99.70;;;;;;5051075;28;20044;-64
2023/04/17 09:35:37;;;;;;;1.23;0.80;;;13.40;99.80;;;;;;5050717;28;20044;-66
2023/04/17 09:38:43;;;;;;;2.80;0.80;;;13.50;99.60;;;;;;5051076;28;20052;-72
2023/04/17 09:41:47;;;;;;;0.70;0.50;;;13.50;98.90;;;;;;5050658;28;20051;-64
2023/04/17 09:44:53;;;;;;;1.00;0.70;;;13.70;99.00;;;;;;5050608;28;20048;-65
2023/04/17 09:47:57;;;;;;;2.38;0.85;;;;;;;;;;5050458;28;20048;-63
2023/04/17 09:51:02;;;;;;;1.15;0.68;;;;;;;;;;5050535;28;20037;-67
2023/04/17 09:54:08;;;;;;;0.52;0.52;;;14.30;99.60;;;;;;5050380;28;20041;-66
2023/04/17 09:57:13;;;;;;;1.60;0.98;;;13.80;99.10;;;;;;5050640;28;20068;-67
2023/04/17 10:00:19;;;;;;;1.17;0.70;;;13.60;99.40;;;;;;5050737;28;20381;-66
2023/04/17 10:03:22;;;;;;;1.23;0.80;;;13.60;99.40;;;;;;5050464;28;20059;-65
2023/04/17 10:06:28;;;;;;;0.68;0.68;;;13.70;98.80;;;;;;5050554;28;20044;-65
2023/04/17 10:09:33;;;;;;;0.90;0.60;;;13.90;98.40;;;;;;5049473;28;20048;-66
2023/04/17 10:12:39;;;;;;;4.10;0.85;;;13.30;99.20;;;;;;5049836;28;20040;-66
2023/04/17 10:15:45;;;;;;;2.10;0.90;;;13.50;99.30;;;;;;5049584;28;20044;-67
2023/04/17 10:19:29;;;;;;;1.90;1.10;;;13.30;99.70;;;;;;5051644;28;20052;-65
2023/04/17 10:22:40;;;;;;;5.03;0.88;;;13.20;99.90;;;;;;5053916;28;20393;-67
2023/04/17 10:25:45;;;;;;;3.45;1.83;;;13.10;99.90;;;;;;5054114;28;20056;-68
2023/04/17 10:28:50;;;;;;;1.50;1.23;;;13.00;99.90;;;;;;5053355;28;20527;-68
2023/04/17 10:32:10;;;;;;;4.68;1.45;;;12.80;99.90;;;;;;5054541;28;20400;-68
2023/04/17 10:35:16;;;;;;;1.20;0.88;;;12.80;99.90;;;;;;5054073;28;20035;-68
2023/04/17 10:38:31;;;;;;;1.55;1.02;;;13.20;99.90;;;;;;5054293;28;20055;-67
2023/04/17 10:42:02;;;;;;;2.78;1.05;;;13.50;99.40;;;;;;5053963;28;20079;-67
2023/04/17 10:45:17;;;;;;;1.77;1.00;;;14.40;99.00;;;;;;5053396;28;20056;-65
2023/04/17 10:48:26;;;;;;;2.25;0.90;;;14.80;97.20;;;;;;5053469;28;20046;-65
2023/04/17 10:51:31;;;;;;;4.43;1.05;;;15.20;97.20;;;;;;5054088;28;20052;-66
2023/04/17 10:54:35;;;;;;;1.90;1.30;;;16.60;97.40;;;;;;5053974;28;20040;-66
2023/04/17 10:57:58;;;;;;;0.80;0.80;;;16.10;96.80;;;;;;5053624;28;20155;-66
2023/04/17 11:01:07;;;;;;;2.15;1.02;;;15.20;96.40;;;;;;5053813;28;20052;-66
2023/04/17 11:04:21;;;;;;;2.50;1.38;;;16.20;96.70;;;;;;5053317;28;20425;-66
2023/04/17 11:07:25;;;;;;;9.27;1.77;;;15.10;96.40;;;;;;5052849;28;20508;-66
2023/04/17 11:10:29;;;;;;;0.90;0.80;;;15.30;96.60;;;;;;5053378;28;20048;-65
2023/04/17 11:13:33;;;;;;;1.25;1.00;;;15.20;96.70;;;;;;5053900;28;20504;-67
2023/04/17 11:16:39;;;;;;;2.47;1.08;;;15.60;96.60;;;;;;5053760;28;20056;-66
2023/04/17 11:19:44;;;;;;;1.73;1.40;;;15.10;96.70;;;;;;5053534;28;20044;-67
2023/04/17 11:22:49;;;;;;;2.95;1.55;;;15.10;96.30;;;;;;5052134;28;20399;-66
2023/04/17 11:25:53;;;;;;;2.85;1.20;;;15.10;96.50;;;;;;5052788;28;20056;-67
2023/04/17 11:28:59;;;;;;;4.93;1.70;;;15.10;96.70;;;;;;5052998;28;20405;-65
2023/04/17 11:32:04;;;;;;;2.17;1.20;;;15.10;96.60;;;;;;5052152;28;20052;-66
2023/04/17 11:35:09;;;;;;;2.65;1.05;;;15.10;96.40;;;;;;5052982;28;20048;-66
2023/04/17 11:38:19;;;;;;;2.17;1.30;;;15.10;96.40;;;;;;5052239;28;20048;-66
2023/04/17 11:41:23;;;;;;;1.27;1.10;;;15.10;96.30;;;;;;5052984;28;20048;-65
2023/04/17 11:44:28;;;;;;;1.73;1.08;;;15.10;96.60;;;;;;5052760;28;20048;-65
2023/04/17 11:47:31;;;;;;;2.20;1.55;;;15.10;96.80;;;;;;5052643;28;20040;-65
2023/04/17 11:50:36;;;;;;;2.55;1.45;;;15.20;96.80;;;;;;5051766;28;20040;-67
2023/04/17 11:53:47;;;;;;;1.60;1.02;;;15.10;96.80;;;;;;5052753;28;20052;-66
2023/04/17 11:57:05;;;;;;;2.13;1.10;;;15.10;96.80;;;;;;5052630;28;20628;-66
2023/04/17 12:00:16;;;;;;;3.20;1.05;;;15.10;96.70;;;;;;5052818;28;20052;-66
2023/04/17 12:03:34;;;;;;;2.85;1.23;;;15.10;96.70;;;;;;5052580;28;20040;-66
2023/04/17 12:06:39;;;;;;;1.55;1.27;;;15.20;96.70;;;;;;5052537;28;20048;-67
2023/04/17 12:09:55;;;;;;;1.20;1.00;;;15.20;96.80;;;;;;5052364;28;20040;-66
2023/04/17 12:13:00;;;;;;;1.30;1.20;;;15.20;96.80;;;;;;5052932;28;20051;-68
2023/04/17 12:16:05;;;;;;;2.45;1.38;;;15.20;96.80;;;;;;5052397;28;20366;-66
2023/04/17 12:19:11;;;;;;;1.70;1.33;;;15.50;96.60;;;;;;5051817;28;20052;-66
2023/04/17 12:22:16;;;;;;;4.18;1.45;;;15.10;96.30;;;;;;5051991;28;20052;-65
2023/04/17 12:25:20;;;;;;;2.90;1.58;;;15.10;96.60;;;;;;5051573;28;20415;-65
2023/04/17 12:28:24;;;;;;;12.77;2.55;;;15.10;96.70;;;;;;5051942;28;20146;-66
2023/04/17 12:31:28;;;;;;;3.58;1.65;;;15.10;97.10;;;;;;5051898;28;20040;-67
2023/04/17 12:34:32;;;;;;;3.20;1.63;;;15.10;97.30;;;;;;5051577;28;20040;-66
2023/04/17 12:37:36;;;;;;;3.15;1.77;;;15.10;97.40;;;;;;5051795;28;20044;-65
2023/04/17 12:40:42;;;;;;;3.15;1.90;;;15.10;97.70;;;;;;5052109;28;20043;-65
2023/04/17 12:43:45;;;;;;;2.00;1.30;;;15.10;97.40;;;;;;5039626;28;20068;-66
2023/04/17 12:46:49;;;;;;;1.27;1.10;;;15.10;96.90;;;;;;5052073;28;20040;-66
2023/04/17 12:49:53;;;;;;;3.13;1.15;;;15.10;96.40;;;;;;5052001;28;20048;-66
2023/04/17 12:52:58;;;;;;;1.80;1.42;;;15.10;95.70;;;;;;5051881;28;20040;-66
2023/04/17 12:56:02;;;;;;;3.53;1.60;;;15.20;96.20;;;;;;5051636;28;20564;-66
2023/04/17 12:59:07;;;;;;;1.83;1.40;;;15.20;96.90;;;;;;5050886;28;20059;-66
2023/04/17 13:02:11;;;;;;;3.20;1.50;;;15.10;97.40;;;;;;5051401;28;20044;-63
2023/04/17 13:05:16;;;;;;;3.55;1.50;;;;;;;;;;5050957;28;20052;-64
2023/04/17 13:08:21;;;;;;;2.20;1.90;;;;;;;;;;5051515;28;20033;-66
2023/04/17 13:11:25;;;;;;;4.85;3.00;;;12.90;99.90;;;;;;5051594;28;20041;-64
2023/04/17 13:14:30;;;;;;;3.85;2.85;;;12.60;99.90;;;;;;5039076;28;20044;-68
2023/04/17 13:17:35;;;;;;;2.92;2.30;;;12.60;99.90;;;;;;5050765;28;20539;-67
2023/04/17 13:20:39;;;;;;;2.67;1.98;;;11.70;99.90;;;;;;5051253;28;20047;-62
2023/04/17 13:23:43;;;;;;;3.65;2.50;;;12.80;99.90;;;;;;5050843;28;20051;-61
2023/04/17 13:26:47;;;;;;;3.45;2.55;;;12.90;99.90;;;;;;5049563;28;20047;-63
2023/04/17 13:29:53;;;;;;;3.97;2.53;;;12.70;99.90;;;;;;5050922;28;20048;-65
2023/04/17 13:32:56;;;;;;;4.40;2.53;;;12.60;99.90;;;;;;5051109;28;20040;-64
2023/04/17 13:36:00;;;;;;;7.40;2.63;;;12.60;99.90;;;;;;5050074;28;20036;-65
2023/04/17 13:39:04;;;;;;;4.85;2.50;;;12.80;99.90;;;;;;5051031;28;20043;-65
2023/04/17 13:42:08;;;;;;;4.85;2.67;;;;;;;;;;5051202;28;20048;-64
2023/04/17 13:45:13;;;;;;;5.28;2.92;;;;;;;;;;5050583;28;20049;-65
2023/04/17 13:48:17;;;;;;;4.10;3.00;;;12.60;99.90;;;;;;5050314;28;20041;-66
2023/04/17 13:51:21;;;;;;;4.82;3.22;;;12.60;99.90;;;;;;5050776;28;20056;-66
2023/04/17 13:54:25;;;;;;;4.35;3.03;;;12.70;99.90;;;;;;5055191;28;20040;-65
2023/04/17 13:57:29;;;;;;;10.95;4.18;;;;;;;;;;5057444;28;20514;-67
2023/04/17 14:00:33;;;;;;;5.78;2.97;;;12.70;99.90;;;;;;5057254;28;20044;-66
2023/04/17 14:03:37;;;;;;;6.35;2.88;;;12.80;99.90;;;;;;5056146;28;20043;-67
2023/04/17 14:06:43;;;;;;;4.20;2.90;;;;;;;;;;5057741;28;20040;-65
2023/04/17 14:09:46;;;;;;;6.15;2.72;;;12.60;99.90;;;;;;5056534;28;20036;-65
2023/04/17 14:12:51;;;;;;;9.43;3.17;;;12.70;99.90;;;;;;5056890;28;20044;-64
2023/04/17 14:15:55;;;;;;;4.55;2.85;;;12.90;99.90;;;;;;5057198;28;20044;-65
2023/04/17 14:18:59;;;;;;;6.65;3.35;;;13.10;99.90;;;;;;5057205;28;20500;-67
2023/04/17 14:22:04;;;;;;;5.00;2.60;;;12.90;99.90;;;;;;5057425;28;20044;-65
2023/04/17 14:25:08;;;;;;;3.33;2.30;;;13.00;99.90;;;;;;5056706;28;20079;-64
2023/04/17 14:28:12;;;;;;;3.00;2.70;;;13.00;99.90;;;;;;5057143;28;20044;-67
2023/04/17 14:31:16;;;;;;;15.35;6.93;;;13.70;99.90;;;;;;5057597;28;20055;-66
2023/04/17 14:34:20;;;;;;;9.63;4.35;;;13.10;99.90;;;;;;5044735;28;20048;-66
2023/04/17 14:37:25;;;;;;;5.65;3.50;;;13.80;99.90;;;;;;5057027;28;20060;-66
2023/04/17 14:40:29;;;;;;;6.28;2.97;;;;;;;;;;5057346;28;20047;-67
2023/04/17 14:43:33;;;;;;;9.73;3.17;;;12.70;99.90;;;;;;5056848;28;20033;-64
2023/04/17 14:46:37;;;;;;;4.13;3.60;;;13.80;99.90;;;;;;5056934;28;20075;-68
2023/04/17 14:49:41;;;;;;;6.10;3.40;;;;;;;;;;5057670;28;20056;-67
2023/04/17 14:52:45;;;;;;;7.22;2.95;;;14.00;99.90;;;;;;5056807;28;20041;-66
2023/04/17 14:55:49;;;;;;;6.95;4.43;;;12.90;99.90;;;;;;5056943;28;20040;-67
2023/04/17 14:58:53;;;;;;;5.88;4.18;;;13.00;99.90;;;;;;5057086;28;20056;-69
2023/04/17 15:01:57;;;;;;;5.18;2.88;;;13.90;99.90;;;;;;5056879;28;20071;-68
2023/04/17 15:05:02;;;;;;;5.20;3.63;;;;;;;;;;5054657;28;20044;-68
2023/04/17 15:08:06;;;;;;;6.15;2.83;;;13.30;99.90;;;;;;5053875;28;20045;-65
2023/04/17 15:11:10;;;;;;;4.63;2.65;;;13.20;99.90;;;;;;5054007;28;20044;-66
2023/04/17 15:14:14;;;;;;;6.60;2.45;;;13.10;99.90;;;;;;5053305;28;20043;-69
2023/04/17 15:17:18;;;;;;;2.92;2.15;;;12.70;99.90;;;;;;5053791;28;20044;-68
2023/04/17 15:20:26;;;;;;;5.43;2.78;;;13.00;99.90;;;;;;5053638;28;20393;-66
2023/04/17 15:23:30;;;;;;;8.93;3.08;;;13.10;99.90;;;;;;5053384;28;20048;-67
2023/04/17 15:26:34;;;;;;;3.45;2.67;;;13.10;99.90;;;;;;5053191;28;20052;-66
2023/04/17 15:29:43;;;;;;;6.03;2.72;;;13.20;99.90;;;;;;5053775;28;20047;-75
2023/04/17 15:32:48;;;;;;;5.88;2.78;;;13.10;99.90;;;;;;5053232;28;20044;-66
2023/04/17 15:35:57;;;;;;;5.28;3.40;;;13.20;99.90;;;;;;5052454;28;20056;-72
2023/04/17 15:39:01;;;;;;;4.55;2.60;;;13.60;99.90;;;;;;5041072;28;20611;-66
2023/04/17 15:42:09;;;;;;;4.00;3.00;;;13.10;99.90;;;;;;5052065;28;20040;-65
2023/04/17 15:45:13;;;;;;;3.33;2.55;;;;;;;;;;5040693;28;20056;-68
2023/04/17 15:48:17;;;;;;;7.47;2.22;;;13.00;99.90;;;;;;5052807;28;20033;-66
2023/04/17 15:51:21;;;;;;;3.75;1.98;;;13.30;99.90;;;;;;5053215;28;20072;-67
2023/04/17 15:54:26;;;;;;;1.98;1.50;;;;;;;;;;5052710;28;20381;-67
2023/04/17 15:57:31;;;;;;;2.88;1.98;;;;;;;;;;5052937;28;20045;-66
2023/04/17 16:00:35;;;;;;;2.70;2.00;;;;;;;;;;5053002;28;20472;-67
2023/04/17 16:03:42;;;;;;;3.88;2.40;;;;;;;;;;5052638;28;20041;-65
2023/04/17 16:06:46;;;;;;;3.47;2.15;;;13.60;99.50;;;;;;5052932;28;20366;-65
2023/04/17 16:09:50;;;;;;;1.60;1.50;;;;;;;;;;5052511;28;20048;-72
2023/04/17 16:12:54;;;;;;;4.28;1.92;;;;;;;;;;5052663;28;20033;-68
2023/04/17 16:15:58;;;;;;;2.08;1.70;;;13.40;98.50;;;;;;5051861;28;20048;-67
2023/04/17 16:19:02;;;;;;;2.08;1.40;;;13.70;99.00;;;;;;5052405;28;20040;-65
2023/04/17 16:22:07;;;;;;;1.92;1.20;;;;;;;;;;5052732;28;20131;-67
2023/04/17 16:25:11;;;;;;;3.42;1.33;;;14.10;97.70;;;;;;5053969;28;20057;-64
2023/04/17 16:28:15;;;;;;;3.03;1.83;;;;;;;;;;5050137;28;20043;-65